sensor_id;sensor_type;location;lat;lon;timestamp;temperature;humidity
22185;DHT22;11258;52.516;13.318;2022-09-09T00:03:48;16.00;99.90
22185;DHT22;11258;52.516;13.318;2022-09-09T00:06:27;16.00;99.90
22185;DHT22;11258;52.516;13.318;2022-09-09T00:11:36;15.90;99.90
22185;DHT22;11258;52.516;13.318;2022-09-09T00:14:13;15.90;99.90
22185;DHT22;11258;52.516;13.318;2022-09-09T00:16:42;15.90;99.90
22185;DHT22;11258;52.516;13.318;2022-09-09T00:21:55;15.80;99.90
22185;DHT22;11258;52.516;13.318;2022-09-09T00:24:54;15.90;99.90
22185;DHT22;11258;52.516;13.318;2022-09-09T00:27:46;15.80;99.90
22185;DHT22;11258;52.516;13.318;2022-09-09T00:30:24;15.80;99.90
22185;DHT22;11258;52.516;13.318;2022-09-09T00:32:54;15.80;99.90
22185;DHT22;11258;52.516;13.318;2022-09-09T00:35:47;15.80;99.90
22185;DHT22;11258;52.516;13.318;2022-09-09T00:38:34;15.80;99.90
22185;DHT22;11258;52.516;13.318;2022-09-09T00:41:15;15.70;99.90
22185;DHT22;11258;52.516;13.318;2022-09-09T00:43:50;15.80;99.90
22185;DHT22;11258;52.516;13.318;2022-09-09T00:46:41;15.80;99.90
22185;DHT22;11258;52.516;13.318;2022-09-09T00:52:27;15.80;99.90
22185;DHT22;11258;52.516;13.318;2022-09-09T00:55:14;15.70;99.90
22185;DHT22;11258;52.516;13.318;2022-09-09T00:57:41;15.70;99.90
22185;DHT22;11258;52.516;13.318;2022-09-09T01:06:02;15.60;99.90
22185;DHT22;11258;52.516;13.318;2022-09-09T01:17:09;15.60;99.90
22185;DHT22;11258;52.516;13.318;2022-09-09T01:22:35;15.50;99.90
22185;DHT22;11258;52.516;13.318;2022-09-09T01:27:48;15.50;99.90
22185;DHT22;11258;52.516;13.318;2022-09-09T01:30:16;15.50;99.90
22185;DHT22;11258;52.516;13.318;2022-09-09T01:32:45;15.50;99.90
22185;DHT22;11258;52.516;13.318;2022-09-09T01:35:19;15.50;99.90
22185;DHT22;11258;52.516;13.318;2022-09-09T01:37:47;15.50;99.90
22185;DHT22;11258;52.516;13.318;2022-09-09T01:40:12;15.50;99.90
22185;DHT22;11258;52.516;13.318;2022-09-09T01:42:38;15.50;99.90
22185;DHT22;11258;52.516;13.318;2022-09-09T01:45:04;15.40;99.90
22185;DHT22;11258;52.516;13.318;2022-09-09T01:47:30;15.40;99.90
22185;DHT22;11258;52.516;13.318;2022-09-09T01:49:55;15.40;99.90
22185;DHT22;11258;52.516;13.318;2022-09-09T01:52:21;15.40;99.90
22185;DHT22;11258;52.516;13.318;2022-09-09T01:54:47;15.40;99.90
22185;DHT22;11258;52.516;13.318;2022-09-09T01:57:21;15.40;99.90
22185;DHT22;11258;52.516;13.318;2022-09-09T02:00:07;15.30;99.90
22185;DHT22;11258;52.516;13.318;2022-09-09T02:03:08;15.30;99.90
22185;DHT22;11258;52.516;13.318;2022-09-09T02:08:09;15.30;99.90
22185;DHT22;11258;52.516;13.318;2022-09-09T02:10:59;15.30;99.90
22185;DHT22;11258;52.516;13.318;2022-09-09T02:13:27;15.20;99.90
22185;DHT22;11258;52.516;13.318;2022-09-09T02:21:15;15.20;99.90
22185;DHT22;11258;52.516;13.318;2022-09-09T02:23:42;15.20;99.90
22185;DHT22;11258;52.516;13.318;2022-09-09T02:26:10;15.20;99.90
22185;DHT22;11258;52.516;13.318;2022-09-09T02:28:39;15.20;99.90
22185;DHT22;11258;52.516;13.318;2022-09-09T02:31:05;15.20;99.90
22185;DHT22;11258;52.516;13.318;2022-09-09T02:33:37;15.10;99.90
22185;DHT22;11258;52.516;13.318;2022-09-09T02:36:05;15.10;99.90
22185;DHT22;11258;52.516;13.318;2022-09-09T02:38:36;15.10;99.90
22185;DHT22;11258;52.516;13.318;2022-09-09T02:41:03;15.20;99.90
22185;DHT22;11258;52.516;13.318;2022-09-09T02:43:35;15.10;99.90
22185;DHT22;11258;52.516;13.318;2022-09-09T02:46:30;15.10;99.90
22185;DHT22;11258;52.516;13.318;2022-09-09T02:49:16;15.10;99.90
22185;DHT22;11258;52.516;13.318;2022-09-09T02:52:02;15.10;99.90
22185;DHT22;11258;52.516;13.318;2022-09-09T02:54:35;15.10;99.90
22185;DHT22;11258;52.516;13.318;2022-09-09T02:57:12;15.10;99.90
22185;DHT22;11258;52.516;13.318;2022-09-09T02:59:40;15.10;99.90
22185;DHT22;11258;52.516;13.318;2022-09-09T03:02:06;15.10;99.90
22185;DHT22;11258;52.516;13.318;2022-09-09T03:04:32;15.10;99.90
22185;DHT22;11258;52.516;13.318;2022-09-09T03:06:58;15.00;99.90
22185;DHT22;11258;52.516;13.318;2022-09-09T03:09:24;15.00;99.90
22185;DHT22;11258;52.516;13.318;2022-09-09T03:11:51;15.00;99.90
22185;DHT22;11258;52.516;13.318;2022-09-09T03:14:17;15.00;99.90
22185;DHT22;11258;52.516;13.318;2022-09-09T03:16:46;15.00;99.90
22185;DHT22;11258;52.516;13.318;2022-09-09T03:19:12;15.00;99.90
22185;DHT22;11258;52.516;13.318;2022-09-09T03:21:38;15.00;99.90
22185;DHT22;11258;52.516;13.318;2022-09-09T03:24:04;15.00;99.90
22185;DHT22;11258;52.516;13.318;2022-09-09T03:26:30;15.00;99.90
22185;DHT22;11258;52.516;13.318;2022-09-09T03:28:56;14.90;99.90
22185;DHT22;11258;52.516;13.318;2022-09-09T03:31:22;15.00;99.90
22185;DHT22;11258;52.516;13.318;2022-09-09T03:33:47;15.00;99.90
22185;DHT22;11258;52.516;13.318;2022-09-09T03:36:14;15.00;99.90
22185;DHT22;11258;52.516;13.318;2022-09-09T03:38:40;15.00;99.90
22185;DHT22;11258;52.516;13.318;2022-09-09T03:41:06;14.90;99.90
22185;DHT22;11258;52.516;13.318;2022-09-09T03:43:33;14.90;99.90
22185;DHT22;11258;52.516;13.318;2022-09-09T03:45:58;14.90;99.90
22185;DHT22;11258;52.516;13.318;2022-09-09T03:48:24;14.90;99.90
22185;DHT22;11258;52.516;13.318;2022-09-09T03:50:52;14.80;99.90
22185;DHT22;11258;52.516;13.318;2022-09-09T03:53:20;14.80;99.90
22185;DHT22;11258;52.516;13.318;2022-09-09T03:55:47;14.80;99.90
22185;DHT22;11258;52.516;13.318;2022-09-09T03:58:14;14.80;99.90
22185;DHT22;11258;52.516;13.318;2022-09-09T04:00:40;14.80;99.90
22185;DHT22;11258;52.516;13.318;2022-09-09T04:03:09;14.80;99.90
22185;DHT22;11258;52.516;13.318;2022-09-09T04:05:35;14.80;99.90
22185;DHT22;11258;52.516;13.318;2022-09-09T04:08:00;14.80;99.90
22185;DHT22;11258;52.516;13.318;2022-09-09T04:10:26;14.70;99.90
22185;DHT22;11258;52.516;13.318;2022-09-09T04:12:52;14.70;99.90
22185;DHT22;11258;52.516;13.318;2022-09-09T04:15:17;14.70;99.90
22185;DHT22;11258;52.516;13.318;2022-09-09T04:17:44;14.70;99.90
22185;DHT22;11258;52.516;13.318;2022-09-09T04:20:09;14.80;99.90
22185;DHT22;11258;52.516;13.318;2022-09-09T04:22:37;14.80;99.90
22185;DHT22;11258;52.516;13.318;2022-09-09T04:25:05;14.80;99.90
22185;DHT22;11258;52.516;13.318;2022-09-09T04:27:31;14.80;99.90
22185;DHT22;11258;52.516;13.318;2022-09-09T04:29:57;14.80;99.90
22185;DHT22;11258;52.516;13.318;2022-09-09T04:32:22;14.70;99.90
22185;DHT22;11258;52.516;13.318;2022-09-09T04:34:48;14.80;99.90
22185;DHT22;11258;52.516;13.318;2022-09-09T04:37:14;14.80;99.90
22185;DHT22;11258;52.516;13.318;2022-09-09T04:39:40;14.80;99.90
22185;DHT22;11258;52.516;13.318;2022-09-09T04:42:05;14.90;99.90
22185;DHT22;11258;52.516;13.318;2022-09-09T04:44:31;14.90;99.90
22185;DHT22;11258;52.516;13.318;2022-09-09T04:46:56;15.00;99.90
22185;DHT22;11258;52.516;13.318;2022-09-09T04:49:23;15.00;99.90
22185;DHT22;11258;52.516;13.318;2022-09-09T04:51:49;15.10;99.90
22185;DHT22;11258;52.516;13.318;2022-09-09T04:54:14;15.20;99.90
22185;DHT22;11258;52.516;13.318;2022-09-09T04:56:40;15.20;99.90
22185;DHT22;11258;52.516;13.318;2022-09-09T04:59:07;15.40;99.90
22185;DHT22;11258;52.516;13.318;2022-09-09T05:01:33;15.50;99.90
22185;DHT22;11258;52.516;13.318;2022-09-09T05:03:59;15.70;99.90
22185;DHT22;11258;52.516;13.318;2022-09-09T05:06:24;15.70;99.90
22185;DHT22;11258;52.516;13.318;2022-09-09T05:08:50;15.70;99.90
22185;DHT22;11258;52.516;13.318;2022-09-09T05:13:43;15.90;99.90
22185;DHT22;11258;52.516;13.318;2022-09-09T05:16:09;15.90;99.90
22185;DHT22;11258;52.516;13.318;2022-09-09T05:18:37;15.80;99.90
22185;DHT22;11258;52.516;13.318;2022-09-09T05:21:03;16.10;99.90
22185;DHT22;11258;52.516;13.318;2022-09-09T05:23:28;16.40;99.90
22185;DHT22;11258;52.516;13.318;2022-09-09T05:25:57;17.10;99.90
22185;DHT22;11258;52.516;13.318;2022-09-09T05:28:25;18.50;99.90
22185;DHT22;11258;52.516;13.318;2022-09-09T05:31:02;19.20;99.90
22185;DHT22;11258;52.516;13.318;2022-09-09T05:33:34;20.40;99.90
22185;DHT22;11258;52.516;13.318;2022-09-09T05:36:05;22.40;99.90
22185;DHT22;11258;52.516;13.318;2022-09-09T05:38:32;22.60;99.90
22185;DHT22;11258;52.516;13.318;2022-09-09T05:40:58;22.50;99.90
22185;DHT22;11258;52.516;13.318;2022-09-09T05:43:25;23.00;99.90
22185;DHT22;11258;52.516;13.318;2022-09-09T05:48:37;22.10;99.90
22185;DHT22;11258;52.516;13.318;2022-09-09T05:51:05;23.10;99.90
22185;DHT22;11258;52.516;13.318;2022-09-09T05:53:35;24.70;99.90
22185;DHT22;11258;52.516;13.318;2022-09-09T05:56:09;25.40;99.90
22185;DHT22;11258;52.516;13.318;2022-09-09T05:58:41;26.40;99.90
22185;DHT22;11258;52.516;13.318;2022-09-09T06:01:14;27.70;99.90
22185;DHT22;11258;52.516;13.318;2022-09-09T06:03:42;27.90;99.90
22185;DHT22;11258;52.516;13.318;2022-09-09T06:06:11;27.50;99.90
22185;DHT22;11258;52.516;13.318;2022-09-09T06:08:39;27.30;99.90
22185;DHT22;11258;52.516;13.318;2022-09-09T06:11:11;28.00;99.90
22185;DHT22;11258;52.516;13.318;2022-09-09T06:13:38;25.70;99.90
22185;DHT22;11258;52.516;13.318;2022-09-09T06:16:05;25.50;99.90
22185;DHT22;11258;52.516;13.318;2022-09-09T06:18:32;25.70;99.90
22185;DHT22;11258;52.516;13.318;2022-09-09T06:21:00;26.00;99.90
22185;DHT22;11258;52.516;13.318;2022-09-09T06:23:27;26.90;99.90
22185;DHT22;11258;52.516;13.318;2022-09-09T06:26:05;27.80;99.90
22185;DHT22;11258;52.516;13.318;2022-09-09T06:28:34;28.30;99.90
22185;DHT22;11258;52.516;13.318;2022-09-09T06:31:01;28.50;99.90
22185;DHT22;11258;52.516;13.318;2022-09-09T06:33:31;29.00;99.90
22185;DHT22;11258;52.516;13.318;2022-09-09T06:35:57;28.40;99.90
22185;DHT22;11258;52.516;13.318;2022-09-09T06:38:23;28.00;99.90
22185;DHT22;11258;52.516;13.318;2022-09-09T06:40:56;26.60;99.90
22185;DHT22;11258;52.516;13.318;2022-09-09T06:43:27;24.90;99.90
22185;DHT22;11258;52.516;13.318;2022-09-09T06:45:57;23.60;99.90
22185;DHT22;11258;52.516;13.318;2022-09-09T06:48:23;22.50;99.90
22185;DHT22;11258;52.516;13.318;2022-09-09T06:50:59;21.30;99.90
22185;DHT22;11258;52.516;13.318;2022-09-09T06:53:25;21.30;99.90
22185;DHT22;11258;52.516;13.318;2022-09-09T06:55:51;21.70;99.90
22185;DHT22;11258;52.516;13.318;2022-09-09T06:58:17;22.80;99.90
22185;DHT22;11258;52.516;13.318;2022-09-09T07:00:42;24.20;99.90
22185;DHT22;11258;52.516;13.318;2022-09-09T07:03:09;25.70;99.90
22185;DHT22;11258;52.516;13.318;2022-09-09T07:05:35;26.90;99.90
22185;DHT22;11258;52.516;13.318;2022-09-09T07:08:01;27.60;99.90
22185;DHT22;11258;52.516;13.318;2022-09-09T07:10:27;28.50;99.90
22185;DHT22;11258;52.516;13.318;2022-09-09T07:12:54;29.60;99.90
22185;DHT22;11258;52.516;13.318;2022-09-09T07:15:20;29.70;99.90
22185;DHT22;11258;52.516;13.318;2022-09-09T07:17:46;29.20;99.90
22185;DHT22;11258;52.516;13.318;2022-09-09T07:20:13;29.00;99.90
22185;DHT22;11258;52.516;13.318;2022-09-09T07:22:40;29.70;99.90
22185;DHT22;11258;52.516;13.318;2022-09-09T07:25:06;30.00;99.90
22185;DHT22;11258;52.516;13.318;2022-09-09T07:27:32;29.10;99.90
22185;DHT22;11258;52.516;13.318;2022-09-09T07:29:58;29.60;99.90
22185;DHT22;11258;52.516;13.318;2022-09-09T07:32:23;29.20;99.90
22185;DHT22;11258;52.516;13.318;2022-09-09T07:34:51;29.70;99.90
22185;DHT22;11258;52.516;13.318;2022-09-09T07:37:16;29.40;99.90
22185;DHT22;11258;52.516;13.318;2022-09-09T07:39:43;29.80;99.90
22185;DHT22;11258;52.516;13.318;2022-09-09T07:42:09;30.10;99.90
22185;DHT22;11258;52.516;13.318;2022-09-09T07:44:36;30.40;99.90
22185;DHT22;11258;52.516;13.318;2022-09-09T07:47:02;31.00;99.90
22185;DHT22;11258;52.516;13.318;2022-09-09T07:49:28;30.70;99.90
22185;DHT22;11258;52.516;13.318;2022-09-09T07:51:54;30.20;99.90
22185;DHT22;11258;52.516;13.318;2022-09-09T07:54:21;29.20;99.90
22185;DHT22;11258;52.516;13.318;2022-09-09T07:56:49;28.80;99.90
22185;DHT22;11258;52.516;13.318;2022-09-09T07:59:15;28.40;99.90
22185;DHT22;11258;52.516;13.318;2022-09-09T08:01:49;27.50;99.90
22185;DHT22;11258;52.516;13.318;2022-09-09T08:04:18;28.80;99.90
22185;DHT22;11258;52.516;13.318;2022-09-09T08:06:47;29.40;99.90
22185;DHT22;11258;52.516;13.318;2022-09-09T08:09:13;30.30;99.90
22185;DHT22;11258;52.516;13.318;2022-09-09T08:11:39;30.60;99.90
22185;DHT22;11258;52.516;13.318;2022-09-09T08:14:06;31.10;99.90
22185;DHT22;11258;52.516;13.318;2022-09-09T08:16:34;31.40;99.90
22185;DHT22;11258;52.516;13.318;2022-09-09T08:19:02;31.50;99.90
22185;DHT22;11258;52.516;13.318;2022-09-09T08:21:30;31.70;99.90
22185;DHT22;11258;52.516;13.318;2022-09-09T08:23:59;31.60;99.90
22185;DHT22;11258;52.516;13.318;2022-09-09T08:26:31;30.80;99.90
22185;DHT22;11258;52.516;13.318;2022-09-09T08:28:58;29.60;99.90
22185;DHT22;11258;52.516;13.318;2022-09-09T08:31:54;28.00;99.90
22185;DHT22;11258;52.516;13.318;2022-09-09T08:34:20;26.60;99.90
22185;DHT22;11258;52.516;13.318;2022-09-09T08:36:47;25.80;99.90
22185;DHT22;11258;52.516;13.318;2022-09-09T08:39:14;26.60;99.90
22185;DHT22;11258;52.516;13.318;2022-09-09T08:41:52;26.30;99.90
22185;DHT22;11258;52.516;13.318;2022-09-09T08:52:29;24.30;99.90
22185;DHT22;11258;52.516;13.318;2022-09-09T08:55:15;24.00;99.90
22185;DHT22;11258;52.516;13.318;2022-09-09T08:57:46;24.00;99.90
22185;DHT22;11258;52.516;13.318;2022-09-09T09:00:13;23.30;99.90
22185;DHT22;11258;52.516;13.318;2022-09-09T09:03:02;23.40;99.90
22185;DHT22;11258;52.516;13.318;2022-09-09T09:05:58;23.30;99.90
22185;DHT22;11258;52.516;13.318;2022-09-09T09:08:35;23.00;99.90
22185;DHT22;11258;52.516;13.318;2022-09-09T09:11:04;23.20;99.90
22185;DHT22;11258;52.516;13.318;2022-09-09T09:16:02;23.20;99.90
22185;DHT22;11258;52.516;13.318;2022-09-09T09:18:30;23.20;99.90
22185;DHT22;11258;52.516;13.318;2022-09-09T09:21:10;23.10;99.90
22185;DHT22;11258;52.516;13.318;2022-09-09T09:23:48;23.60;99.90
22185;DHT22;11258;52.516;13.318;2022-09-09T09:26:18;23.50;99.90
22185;DHT22;11258;52.516;13.318;2022-09-09T09:28:44;23.60;99.90
22185;DHT22;11258;52.516;13.318;2022-09-09T09:31:11;24.70;99.90
22185;DHT22;11258;52.516;13.318;2022-09-09T09:36:09;26.00;99.90
22185;DHT22;11258;52.516;13.318;2022-09-09T09:38:36;25.90;99.90
22185;DHT22;11258;52.516;13.318;2022-09-09T09:41:02;26.40;99.90
22185;DHT22;11258;52.516;13.318;2022-09-09T09:43:30;26.40;99.90
22185;DHT22;11258;52.516;13.318;2022-09-09T09:45:56;26.10;99.90
22185;DHT22;11258;52.516;13.318;2022-09-09T09:48:24;26.20;99.90
22185;DHT22;11258;52.516;13.318;2022-09-09T09:50:55;26.30;99.90
22185;DHT22;11258;52.516;13.318;2022-09-09T09:53:27;26.30;99.90
22185;DHT22;11258;52.516;13.318;2022-09-09T09:55:55;26.70;99.90
22185;DHT22;11258;52.516;13.318;2022-09-09T09:58:21;26.30;99.90
22185;DHT22;11258;52.516;13.318;2022-09-09T10:00:51;26.00;99.90
22185;DHT22;11258;52.516;13.318;2022-09-09T10:03:34;25.90;99.90
22185;DHT22;11258;52.516;13.318;2022-09-09T10:06:06;26.20;99.90
22185;DHT22;11258;52.516;13.318;2022-09-09T10:08:43;26.40;99.90
22185;DHT22;11258;52.516;13.318;2022-09-09T10:11:26;25.90;99.90
22185;DHT22;11258;52.516;13.318;2022-09-09T10:17:06;25.70;99.90
22185;DHT22;11258;52.516;13.318;2022-09-09T10:19:34;25.90;99.90
22185;DHT22;11258;52.516;13.318;2022-09-09T10:25:03;26.00;99.90
22185;DHT22;11258;52.516;13.318;2022-09-09T10:27:40;26.50;99.90
22185;DHT22;11258;52.516;13.318;2022-09-09T10:35:30;25.00;99.90
22185;DHT22;11258;52.516;13.318;2022-09-09T10:40:34;24.40;99.90
22185;DHT22;11258;52.516;13.318;2022-09-09T10:57:17;25.40;99.90
22185;DHT22;11258;52.516;13.318;2022-09-09T10:59:50;25.40;99.90
22185;DHT22;11258;52.516;13.318;2022-09-09T11:02:28;25.40;99.90
22185;DHT22;11258;52.516;13.318;2022-09-09T11:07:40;24.70;99.90
22185;DHT22;11258;52.516;13.318;2022-09-09T11:13:19;25.00;99.90
22185;DHT22;11258;52.516;13.318;2022-09-09T11:15:54;24.90;99.90
22185;DHT22;11258;52.516;13.318;2022-09-09T11:18:23;24.60;99.90
22185;DHT22;11258;52.516;13.318;2022-09-09T11:20:52;24.00;99.90
22185;DHT22;11258;52.516;13.318;2022-09-09T11:23:25;23.90;99.90
22185;DHT22;11258;52.516;13.318;2022-09-09T11:25:58;24.20;99.90
22185;DHT22;11258;52.516;13.318;2022-09-09T11:31:17;24.60;99.90
22185;DHT22;11258;52.516;13.318;2022-09-09T11:39:38;24.20;99.90
22185;DHT22;11258;52.516;13.318;2022-09-09T11:44:40;24.10;99.90
22185;DHT22;11258;52.516;13.318;2022-09-09T11:49:44;24.80;99.90
22185;DHT22;11258;52.516;13.318;2022-09-09T11:52:22;24.70;99.90
22185;DHT22;11258;52.516;13.318;2022-09-09T11:54:49;24.70;99.90
22185;DHT22;11258;52.516;13.318;2022-09-09T11:57:35;24.90;99.90
22185;DHT22;11258;52.516;13.318;2022-09-09T12:00:02;25.10;99.90
22185;DHT22;11258;52.516;13.318;2022-09-09T12:02:29;24.90;99.90
22185;DHT22;11258;52.516;13.318;2022-09-09T12:05:06;25.20;99.90
22185;DHT22;11258;52.516;13.318;2022-09-09T12:07:58;24.90;99.90
22185;DHT22;11258;52.516;13.318;2022-09-09T12:12:52;23.70;99.90
22185;DHT22;11258;52.516;13.318;2022-09-09T12:15:19;24.30;99.90
22185;DHT22;11258;52.516;13.318;2022-09-09T12:17:48;24.30;99.90
22185;DHT22;11258;52.516;13.318;2022-09-09T12:36:46;23.70;99.90
22185;DHT22;11258;52.516;13.318;2022-09-09T12:39:37;23.60;99.90
22185;DHT22;11258;52.516;13.318;2022-09-09T12:42:03;23.80;99.90
22185;DHT22;11258;52.516;13.318;2022-09-09T12:44:30;23.90;99.90
22185;DHT22;11258;52.516;13.318;2022-09-09T12:46:58;23.70;99.90
22185;DHT22;11258;52.516;13.318;2022-09-09T12:52:05;23.80;99.90
22185;DHT22;11258;52.516;13.318;2022-09-09T12:54:34;23.80;99.90
22185;DHT22;11258;52.516;13.318;2022-09-09T12:57:00;23.90;99.90
22185;DHT22;11258;52.516;13.318;2022-09-09T12:59:35;24.00;99.90
22185;DHT22;11258;52.516;13.318;2022-09-09T13:02:01;23.90;99.90
22185;DHT22;11258;52.516;13.318;2022-09-09T13:04:27;24.00;99.90
22185;DHT22;11258;52.516;13.318;2022-09-09T13:06:53;24.20;99.90
22185;DHT22;11258;52.516;13.318;2022-09-09T13:09:19;24.30;99.90
22185;DHT22;11258;52.516;13.318;2022-09-09T13:11:54;24.50;99.90
22185;DHT22;11258;52.516;13.318;2022-09-09T13:14:33;24.60;99.90
22185;DHT22;11258;52.516;13.318;2022-09-09T13:17:04;24.50;99.90
22185;DHT22;11258;52.516;13.318;2022-09-09T13:19:34;24.50;99.90
22185;DHT22;11258;52.516;13.318;2022-09-09T13:22:16;24.30;99.90
22185;DHT22;11258;52.516;13.318;2022-09-09T13:24:44;24.30;99.90
22185;DHT22;11258;52.516;13.318;2022-09-09T13:27:29;24.30;99.90
22185;DHT22;11258;52.516;13.318;2022-09-09T13:29:56;24.10;99.90
22185;DHT22;11258;52.516;13.318;2022-09-09T13:32:23;24.30;99.90
22185;DHT22;11258;52.516;13.318;2022-09-09T13:34:57;24.30;99.90
22185;DHT22;11258;52.516;13.318;2022-09-09T13:37:29;24.40;99.90
22185;DHT22;11258;52.516;13.318;2022-09-09T13:39:55;24.40;99.90
22185;DHT22;11258;52.516;13.318;2022-09-09T13:42:28;24.50;99.90
22185;DHT22;11258;52.516;13.318;2022-09-09T13:44:56;24.70;99.90
22185;DHT22;11258;52.516;13.318;2022-09-09T13:47:34;24.60;99.90
22185;DHT22;11258;52.516;13.318;2022-09-09T13:52:44;24.70;99.90
22185;DHT22;11258;52.516;13.318;2022-09-09T13:55:09;24.70;99.90
22185;DHT22;11258;52.516;13.318;2022-09-09T13:57:35;24.80;99.90
22185;DHT22;11258;52.516;13.318;2022-09-09T14:00:01;24.70;99.90
22185;DHT22;11258;52.516;13.318;2022-09-09T14:02:26;24.80;99.90
22185;DHT22;11258;52.516;13.318;2022-09-09T14:04:52;24.70;99.90
22185;DHT22;11258;52.516;13.318;2022-09-09T14:07:20;24.80;99.90
22185;DHT22;11258;52.516;13.318;2022-09-09T14:09:46;25.00;99.90
22185;DHT22;11258;52.516;13.318;2022-09-09T14:12:15;25.10;99.90
22185;DHT22;11258;52.516;13.318;2022-09-09T14:14:41;25.10;99.90
22185;DHT22;11258;52.516;13.318;2022-09-09T14:17:08;25.00;99.90
22185;DHT22;11258;52.516;13.318;2022-09-09T14:19:34;24.90;99.90
22185;DHT22;11258;52.516;13.318;2022-09-09T14:22:00;24.50;99.90
22185;DHT22;11258;52.516;13.318;2022-09-09T14:24:26;24.50;99.90
22185;DHT22;11258;52.516;13.318;2022-09-09T14:26:53;24.40;99.90
22185;DHT22;11258;52.516;13.318;2022-09-09T14:29:19;24.60;99.90
22185;DHT22;11258;52.516;13.318;2022-09-09T14:31:44;24.70;99.90
22185;DHT22;11258;52.516;13.318;2022-09-09T14:34:10;24.60;99.90
22185;DHT22;11258;52.516;13.318;2022-09-09T14:36:36;24.50;99.90
22185;DHT22;11258;52.516;13.318;2022-09-09T14:39:03;24.70;99.90
22185;DHT22;11258;52.516;13.318;2022-09-09T14:41:29;24.80;99.90
22185;DHT22;11258;52.516;13.318;2022-09-09T14:43:55;24.80;99.90
22185;DHT22;11258;52.516;13.318;2022-09-09T14:46:21;24.60;99.90
22185;DHT22;11258;52.516;13.318;2022-09-09T14:48:47;24.50;99.90
22185;DHT22;11258;52.516;13.318;2022-09-09T14:51:19;24.40;99.90
22185;DHT22;11258;52.516;13.318;2022-09-09T14:53:47;24.30;99.90
22185;DHT22;11258;52.516;13.318;2022-09-09T14:56:18;24.20;99.90
22185;DHT22;11258;52.516;13.318;2022-09-09T14:58:44;23.90;99.90
22185;DHT22;11258;52.516;13.318;2022-09-09T15:01:16;23.90;99.90
22185;DHT22;11258;52.516;13.318;2022-09-09T15:03:44;23.90;99.90
22185;DHT22;11258;52.516;13.318;2022-09-09T15:06:14;23.90;99.90
22185;DHT22;11258;52.516;13.318;2022-09-09T15:08:42;23.90;99.90
22185;DHT22;11258;52.516;13.318;2022-09-09T15:11:09;23.90;99.90
22185;DHT22;11258;52.516;13.318;2022-09-09T15:13:36;23.90;99.90
22185;DHT22;11258;52.516;13.318;2022-09-09T15:16:16;23.70;99.90
22185;DHT22;11258;52.516;13.318;2022-09-09T15:18:43;23.50;99.90
22185;DHT22;11258;52.516;13.318;2022-09-09T15:21:14;23.50;99.90
22185;DHT22;11258;52.516;13.318;2022-09-09T15:23:41;23.40;99.90
22185;DHT22;11258;52.516;13.318;2022-09-09T15:26:07;23.50;99.90
22185;DHT22;11258;52.516;13.318;2022-09-09T15:28:34;23.30;99.90
22185;DHT22;11258;52.516;13.318;2022-09-09T15:31:23;23.30;99.90
22185;DHT22;11258;52.516;13.318;2022-09-09T15:33:49;23.30;99.90
22185;DHT22;11258;52.516;13.318;2022-09-09T15:36:20;23.30;99.90
22185;DHT22;11258;52.516;13.318;2022-09-09T15:38:46;23.30;99.90
22185;DHT22;11258;52.516;13.318;2022-09-09T15:41:15;23.20;99.90
22185;DHT22;11258;52.516;13.318;2022-09-09T15:43:46;23.20;99.90
22185;DHT22;11258;52.516;13.318;2022-09-09T15:46:22;23.10;99.90
22185;DHT22;11258;52.516;13.318;2022-09-09T15:48:52;23.20;99.90
22185;DHT22;11258;52.516;13.318;2022-09-09T15:51:17;23.10;99.90
22185;DHT22;11258;52.516;13.318;2022-09-09T15:53:44;23.00;99.90
22185;DHT22;11258;52.516;13.318;2022-09-09T15:56:10;22.90;99.90
22185;DHT22;11258;52.516;13.318;2022-09-09T15:58:36;23.00;99.90
22185;DHT22;11258;52.516;13.318;2022-09-09T16:01:06;23.00;99.90
22185;DHT22;11258;52.516;13.318;2022-09-09T16:03:37;23.00;99.90
22185;DHT22;11258;52.516;13.318;2022-09-09T16:06:04;23.00;99.90
22185;DHT22;11258;52.516;13.318;2022-09-09T16:08:38;23.00;99.90
22185;DHT22;11258;52.516;13.318;2022-09-09T16:13:33;23.10;99.90
22185;DHT22;11258;52.516;13.318;2022-09-09T16:15:59;23.10;99.90
22185;DHT22;11258;52.516;13.318;2022-09-09T16:18:24;23.00;99.90
22185;DHT22;11258;52.516;13.318;2022-09-09T16:20:54;23.10;99.90
22185;DHT22;11258;52.516;13.318;2022-09-09T16:23:20;23.00;99.90
22185;DHT22;11258;52.516;13.318;2022-09-09T16:25:54;23.00;99.90
22185;DHT22;11258;52.516;13.318;2022-09-09T16:28:19;23.10;99.90
22185;DHT22;11258;52.516;13.318;2022-09-09T16:30:45;23.00;99.90
22185;DHT22;11258;52.516;13.318;2022-09-09T16:33:10;22.90;99.90
22185;DHT22;11258;52.516;13.318;2022-09-09T16:35:36;22.90;99.90
22185;DHT22;11258;52.516;13.318;2022-09-09T16:38:04;22.90;99.90
22185;DHT22;11258;52.516;13.318;2022-09-09T16:40:29;22.90;99.90
22185;DHT22;11258;52.516;13.318;2022-09-09T16:42:55;22.90;99.90
22185;DHT22;11258;52.516;13.318;2022-09-09T16:45:21;22.90;99.90
22185;DHT22;11258;52.516;13.318;2022-09-09T16:47:47;22.80;99.90
22185;DHT22;11258;52.516;13.318;2022-09-09T16:50:14;22.70;99.90
22185;DHT22;11258;52.516;13.318;2022-09-09T16:52:39;22.70;99.90
22185;DHT22;11258;52.516;13.318;2022-09-09T16:55:05;22.60;99.90
22185;DHT22;11258;52.516;13.318;2022-09-09T16:57:31;22.50;99.90
22185;DHT22;11258;52.516;13.318;2022-09-09T16:59:56;22.50;99.90
22185;DHT22;11258;52.516;13.318;2022-09-09T17:02:24;22.40;99.90
22185;DHT22;11258;52.516;13.318;2022-09-09T17:04:50;22.40;99.90
22185;DHT22;11258;52.516;13.318;2022-09-09T17:07:16;22.40;99.90
22185;DHT22;11258;52.516;13.318;2022-09-09T17:09:43;22.30;99.90
22185;DHT22;11258;52.516;13.318;2022-09-09T17:12:10;22.30;99.90
22185;DHT22;11258;52.516;13.318;2022-09-09T17:14:37;22.30;99.90
22185;DHT22;11258;52.516;13.318;2022-09-09T17:17:03;22.20;99.90
22185;DHT22;11258;52.516;13.318;2022-09-09T17:19:30;22.20;99.90
22185;DHT22;11258;52.516;13.318;2022-09-09T17:21:56;22.20;99.90
22185;DHT22;11258;52.516;13.318;2022-09-09T17:24:26;22.10;99.90
22185;DHT22;11258;52.516;13.318;2022-09-09T17:26:52;22.10;99.90
22185;DHT22;11258;52.516;13.318;2022-09-09T17:29:18;22.00;99.90
22185;DHT22;11258;52.516;13.318;2022-09-09T17:31:44;21.90;99.90
22185;DHT22;11258;52.516;13.318;2022-09-09T17:34:09;21.90;99.90
22185;DHT22;11258;52.516;13.318;2022-09-09T17:36:35;21.80;99.90
22185;DHT22;11258;52.516;13.318;2022-09-09T17:39:03;21.70;99.90
22185;DHT22;11258;52.516;13.318;2022-09-09T17:41:37;21.60;99.90